Terminal Aerodrome Forecast
Issued by NWS

Home | Current Version | Previous Version | Text Only | Print | Product List | Glossary On
Versions: 1 2 3 4 5 6 7 8 9 10 11 12 13
332
FTUS45 KABQ 261740
TAFGUP
TAF
KGUP 261740Z 2618/2718 27006KT P6SM FEW070 SCT120
     FM262000 29006KT P6SM VCSH BKN080
     FM262200 02008KT P6SM VCTS BKN070CB OVC120
     FM270100 15008KT P6SM VCSH BKN080 OVC140
     FM270500 VRB06KT P6SM BKN120
     FM271600 01007KT P6SM FEW070 SCT130=

USA.gov is the U.S. government's official web portal to all federal, state and local government web resources and services.